Regional Weather

 

KMKL - Jackson, TN, USA
Distance from station: WNW 50mi, 81km
Updated: Sun, Oct-02-2022 10:53am CDT
Clear
Clear
 Wind from NNE
Wind: NNE 10 mph , 17 km/h
Temperature: 72°F , 22°C
Dew Point: 46°F , 8°C
Humidity: 41%
Barometer: 30.20 inHg , 1022.7 hPa
Clouds: Clear
Visibility: 10 miles , 16 km
2022/10/02 15:53 KMKL 021553Z 03009KT 10SM CLR 22/08 A3020 RMK AO2 SLP223 T02220078 $
KMEM - Memphis, TN, USA
Distance from station: W 108mi, 173km
Updated: Sun, Oct-02-2022 10:54am CDT
Clear
Clear
 Wind from NE
Wind: NE 12 mph , 19 km/h
Temperature: 72°F , 22°C
Dew Point: 43°F , 6°C
Humidity: 36%
Barometer: 30.21 inHg , 1023 hPa
Clouds: Clear
Visibility: 10 miles , 16 km
2022/10/02 15:54 KMEM 021554Z 04010KT 10SM CLR 22/06 A3021 RMK AO2 SLP226 T02220061
 
KBNA - Nashville, TN, USA
Distance from station: NE 97mi, 157km
Updated: Sun, Oct-02-2022 10:53am CDT
Clear
Clear
 Wind from NNE
Wind: NNE 13 mph , 20 km/h
Temperature: 70°F , 21°C
Dew Point: 43°F , 6°C
Humidity: 38%
Barometer: 30.16 inHg , 1021.3 hPa
Clouds: Clear
Visibility: 10 miles , 16 km
2022/10/02 15:53 KBNA 021553Z 03011KT 10SM CLR 21/06 A3016 RMK AO2 SLP208 T02110061 $
KCKV - Clarksville, TN, USA
Distance from station: NNE 99mi, 159km
Updated: Sun, Oct-02-2022 10:52am CDT
Clear
Clear
 Wind from NE
Wind: NE 8 mph , 13 km/h
Temperature: 70°F , 21°C
Dew Point: 46°F , 8°C
Humidity: 43%
Barometer: 30.18 inHg , 1022 hPa
Clouds: Clear
Visibility: 10 miles , 16 km
2022/10/02 15:52 KCKV 021552Z AUTO 04007KT 10SM CLR 21/08 A3018 RMK AO2 SLP215 T02110083 $
 
KPAH - Paducah, KY, USA
Distance from station: NNW 128mi, 205km
Updated: Sun, Oct-02-2022 10:53am CDT
Clear
Clear
 Wind from varies
Wind: varies 5 mph , 7 km/h
Temperature: 70°F , 21°C
Dew Point: 46°F , 8°C
Humidity: 43%
Barometer: 30.21 inHg , 1023 hPa
Clouds: Clear
Visibility: 10 miles , 16 km
2022/10/02 15:53 KPAH 021553Z VRB04KT 10SM CLR 21/08 A3021 RMK AO2 SLP229 T02110078
KCHA - Chattanooga, TN, USA
Distance from station: E 165mi, 265km
Updated: Sun, Oct-02-2022 10:53am CDT
Partly cloudy
Partly cloudy
 Wind from N
Wind: N 18 mph , 30 km/h, Gust: 28 mph , 44 km/h
Temperature: 66°F , 19°C
Dew Point: 50°F , 10°C
Humidity: 56%
Barometer: 30.08 inHg , 1018.6 hPa
Clouds: Partly cloudy
Visibility: 10 miles , 16 km
Cloud details: Partly cloudy 3200 ft
Partly cloudy 20000 ft
2022/10/02 15:53 KCHA 021553Z 35016G24KT 10SM SCT032 SCT200 19/10 A3008 RMK AO2 PK WND 35029/1458 SLP183 T01940100
 
KTYS - Knoxville, TN, USA
Distance from station: E 234mi, 377km
Updated: Sun, Oct-02-2022 11:15am CDT
Overcast
Overcast
 Wind from N
Wind: N 7 mph , 11 km/h
Temperature: 63°F , 17°C
Dew Point: 52°F , 11°C
Humidity: 68%
Barometer: 30.09 inHg , 1019 hPa
Clouds: Overcast
Visibility: 10 miles , 16 km
Cloud details: Partly cloudy 2600 ft
Overcast 3500 ft
2022/10/02 16:15 KTYS 021615Z 01006KT 10SM SCT026 OVC035 17/11 A3009 RMK AO2 T01670106
KLIT - Little Rock, AR, USA
Distance from station: W 240mi, 386km
Updated: Sun, Oct-02-2022 10:53am CDT
Clear
Clear
 Wind from NE
Wind: NE 6 mph , 9 km/h
Temperature: 73°F , 23°C
Dew Point: 45°F , 7°C
Humidity: 36%
Barometer: 30.23 inHg , 1023.7 hPa
Clouds: Clear
Visibility: 10 miles , 16 km
2022/10/02 15:53 KLIT 021553Z 04005KT 10SM CLR 23/07 A3023 RMK AO2 SLP239 T02330072 $

Refresh Page for latest data.